Time;durP1;ratioP1;P1;durP2;ratioP2;P2;SDS_P1;SDS_P2;PMS_P1;PMS_P2;Temp;Humidity;BMP_temperature;BMP_pressure;BME280_temperature;BME280_humidity;BME280_pressure;Samples;Min_cycle;Max_cycle;Signal;HPM_P1;HPM_P2
2022/08/19 00:01:32;;;;;;;10.48;5.60;;;;;;;18.60;95.15;97805.25;1784616;79;21000;-62
2022/08/19 00:04:00;;;;;;;12.37;5.62;;;;;;;18.54;95.20;97808.77;1778668;79;20980;-62
2022/08/19 00:06:27;;;;;;;9.08;5.45;;;;;;;18.51;95.33;97802.70;1781704;80;20991;-62
2022/08/19 00:08:55;;;;;;;10.23;6.45;;;;;;;18.52;95.37;97810.25;1781094;79;21239;-62
2022/08/19 00:11:22;;;;;;;7.72;5.67;;;;;;;18.51;95.60;97809.48;1780877;79;20980;-62
2022/08/19 00:13:49;;;;;;;9.95;5.78;;;;;;;18.54;95.69;97807.41;1778203;79;20892;-61
2022/08/19 00:16:20;;;;;;;11.15;5.72;;;;;;;18.54;95.68;97804.70;1782852;80;21656;-62
2022/08/19 00:18:47;;;;;;;6.90;5.80;;;;;;;18.53;95.94;97811.28;1776413;79;20888;-62
2022/08/19 00:21:14;;;;;;;10.53;5.50;;;;;;;18.48;96.11;97806.10;1784918;79;21700;-62
2022/08/19 00:23:42;;;;;;;10.48;6.53;;;;;;;18.49;96.44;97809.61;1777564;80;20929;-62
2022/08/19 00:26:10;;;;;;;10.90;6.10;;;;;;;18.49;96.64;97809.02;1751224;81;21057;-61
2022/08/19 00:28:37;;;;;;;10.55;5.67;;;;;;;18.50;96.70;97803.83;1711601;82;21087;-62
2022/08/19 00:31:04;;;;;;;11.53;5.92;;;;;;;18.49;96.84;97807.66;1770912;79;21525;-62
2022/08/19 00:33:32;;;;;;;9.88;5.47;;;;;;;18.46;96.91;97808.38;1781458;80;21817;-62
2022/08/19 00:36:00;;;;;;;11.63;5.83;;;;;;;18.41;96.96;97811.30;1772724;80;20881;-61
2022/08/19 00:38:26;;;;;;;9.48;6.00;;;;;;;18.40;97.12;97809.70;1783665;80;20853;-62
2022/08/19 00:40:53;;;;;;;12.88;6.17;;;;;;;18.40;97.31;97810.50;1767983;80;20936;-62
2022/08/19 00:43:23;;;;;;;8.43;6.12;;;;;;;18.40;97.40;97810.50;1762916;80;20923;-61
2022/08/19 00:45:51;;;;;;;7.70;5.65;;;;;;;18.42;97.31;97803.37;1771066;80;21097;-62
2022/08/19 00:48:18;;;;;;;8.35;5.85;;;;;;;18.43;97.23;97798.18;1782116;80;20841;-61
2022/08/19 00:50:45;;;;;;;9.10;6.00;;;;;;;18.42;97.26;97803.37;1779392;79;20885;-62
2022/08/19 00:53:14;;;;;;;11.68;6.10;;;;;;;18.42;97.28;97797.94;1771087;80;20889;-61
2022/08/19 00:55:41;;;;;;;9.15;6.05;;;;;;;18.45;97.25;97795.91;1775034;80;20919;-61
2022/08/19 00:58:12;;;;;;;9.85;6.08;;;;;;;18.48;97.11;97789.03;1772506;79;21121;-61
2022/08/19 01:00:38;;;;;;;8.00;5.90;;;;;;;18.48;96.83;97787.67;1783754;79;20912;-61
2022/08/19 01:03:09;;;;;;;11.48;5.70;;;;;;;18.50;96.44;97788.91;1784852;80;20899;-61
2022/08/19 01:05:36;;;;;;;10.13;5.10;;;;;;;18.56;95.71;97786.16;1773980;80;21074;-61
2022/08/19 01:08:04;;;;;;;9.13;5.25;;;;;;;18.67;93.91;97785.89;1772937;80;21222;-61
2022/08/19 01:10:39;;;;;;;13.72;5.30;;;;;;;18.85;92.48;97791.20;1783802;80;21118;-62
2022/08/19 01:13:06;;;;;;;;;;;;;;;19.01;91.36;97794.72;1769922;80;21455;-61
2022/08/19 01:15:37;;;;;;;11.00;4.90;;;;;;;19.13;89.94;97806.86;1757247;80;20388;-62
2022/08/19 01:18:06;;;;;;;9.05;4.92;;;;;;;19.22;88.78;97806.67;1761614;80;20948;-61
2022/08/19 01:20:34;;;;;;;6.72;4.60;;;;;;;19.32;88.05;97810.79;1774563;80;20952;-61
2022/08/19 01:23:01;;;;;;;11.60;4.72;;;;;;;19.40;87.00;97811.23;1782545;80;21250;-62
2022/08/19 01:25:36;;;;;;;8.28;4.78;;;;;;;19.47;86.34;97810.03;1774236;80;21411;-62
2022/08/19 01:28:03;;;;;;;6.25;4.90;;;;;;;19.50;85.60;97806.03;1781689;80;20893;-61
2022/08/19 01:30:32;;;;;;;7.45;4.85;;;;;;;19.52;84.94;97804.34;1769264;80;21517;-62
2022/08/19 01:33:05;;;;;;;5.72;4.10;;;;;;;19.51;84.70;97800.03;1757649;81;20945;-62
2022/08/19 01:35:29;;;;;;;8.43;4.67;;;;;;;19.51;84.13;97810.90;1763501;80;21246;-61
2022/08/19 01:38:02;;;;;;;7.20;4.53;;;;;;;19.53;83.87;97816.20;1781980;79;20916;-62
2022/08/19 01:40:31;;;;;;;7.55;4.50;;;;;;;19.57;83.76;97825.81;1781428;80;20857;-61
2022/08/19 01:42:57;;;;;;;9.85;4.67;;;;;;;19.56;83.79;97825.58;1784230;79;21506;-61
2022/08/19 01:45:26;;;;;;;5.53;4.70;;;;;;;19.55;83.71;97826.70;1768740;79;21419;-60
2022/08/19 01:47:53;;;;;;;11.25;5.00;;;;;;;19.53;83.62;97831.70;1779118;80;21906;-60
2022/08/19 01:50:19;;;;;;;8.45;4.40;;;;;;;19.51;83.61;97832.62;1754159;81;21033;-60
2022/08/19 01:52:46;;;;;;;8.05;4.47;;;;;;;19.49;83.52;97833.56;1754542;81;21502;-61
2022/08/19 01:55:17;;;;;;;10.20;4.47;;;;;;;19.48;83.61;97831.97;1754735;81;21076;-61
2022/08/19 01:57:48;;;;;;;8.83;5.15;;;;;;;19.45;83.73;97834.05;1754021;81;20997;-61
2022/08/19 02:00:17;;;;;;;7.10;4.12;;;;;;;19.43;84.00;97833.62;1750719;81;21239;-61
2022/08/19 02:02:43;;;;;;;15.03;4.70;;;;;;;19.40;84.45;97830.23;1706291;82;21508;-60
2022/08/19 02:05:11;;;;;;;8.18;4.67;;;;;;;19.34;84.96;97826.16;1773028;80;20927;-61
2022/08/19 02:07:39;;;;;;;8.35;4.95;;;;;;;19.28;85.47;97831.09;1783714;80;20984;-61
2022/08/19 02:10:10;;;;;;;10.95;4.47;;;;;;;19.19;85.87;97829.68;1779468;79;21481;-60
2022/08/19 02:12:37;;;;;;;11.25;4.80;;;;;;;19.11;86.30;97825.42;1784693;80;21014;-60
2022/08/19 02:15:05;;;;;;;6.58;4.70;;;;;;;19.05;86.62;97818.66;1779452;79;20923;-61
2022/08/19 02:17:32;;;;;;;7.65;4.90;;;;;;;19.01;86.95;97819.15;1783855;80;20888;-61
2022/08/19 02:19:58;;;;;;;7.65;5.10;;;;;;;18.98;87.27;97823.91;1783692;80;21392;-61
2022/08/19 02:22:25;;;;;;;11.57;5.00;;;;;;;18.91;87.52;97818.30;1778228;79;20896;-61
2022/08/19 02:24:53;;;;;;;10.50;4.58;;;;;;;18.84;87.85;97824.13;1771820;80;21123;-61
2022/08/19 02:27:20;;;;;;;10.58;5.22;;;;;;;18.71;88.31;97820.68;1775979;79;20932;-60
2022/08/19 02:29:48;;;;;;;9.78;5.08;;;;;;;18.62;88.70;97826.83;1764291;80;20892;-61
2022/08/19 02:32:16;;;;;;;10.63;5.20;;;;;;;18.58;89.15;97825.95;1764909;80;20927;-60
2022/08/19 02:34:43;;;;;;;7.35;4.92;;;;;;;18.54;89.46;97825.61;1761900;80;21110;-61
2022/08/19 02:38:24;;;;;;;8.18;4.53;;;;;;;18.48;89.76;97818.30;1773587;80;21215;-61
2022/08/19 02:39:38;;;;;;;5.22;4.45;;;;;;;18.44;89.99;97825.53;1774338;79;21404;-60
2022/08/19 02:42:05;;;;;;;7.17;4.70;;;;;;;18.39;90.36;97827.13;1773038;79;21535;-61
2022/08/19 02:44:32;;;;;;;9.10;4.47;;;;;;;18.38;90.74;97833.67;1775415;79;20987;-60
2022/08/19 02:46:58;;;;;;;9.65;5.62;;;;;;;18.38;91.01;97836.37;1773791;79;20927;-61
2022/08/19 02:49:25;;;;;;;5.85;4.87;;;;;;;18.35;91.18;97831.08;1766836;80;21243;-61
2022/08/19 02:51:51;;;;;;;8.03;4.90;;;;;;;18.30;91.14;97833.27;1771952;80;20845;-60
2022/08/19 02:54:18;;;;;;;7.42;5.00;;;;;;;18.19;91.21;97839.72;1783973;80;20892;-61
2022/08/19 02:56:46;;;;;;;6.15;4.70;;;;;;;18.11;91.41;97839.86;1776655;80;20992;-61
2022/08/19 02:59:12;;;;;;;10.10;4.75;;;;;;;18.06;91.82;97840.09;1760766;80;20881;-60
2022/08/19 03:01:40;;;;;;;6.78;4.65;;;;;;;18.05;92.04;97842.01;1779100;80;21175;-60
2022/08/19 03:04:10;;;;;;;6.45;4.85;;;;;;;18.04;92.21;97839.65;1784026;79;21101;-61
2022/08/19 03:06:39;;;;;;;7.65;4.58;;;;;;;18.05;92.29;97842.56;1776469;79;21066;-63
2022/08/19 03:09:05;;;;;;;11.12;4.70;;;;;;;18.05;92.39;97846.07;1780187;80;21010;-63
2022/08/19 03:11:32;;;;;;;7.67;4.58;;;;;;;18.06;92.69;97849.58;1777189;80;20937;-63
2022/08/19 03:13:59;;;;;;;12.00;5.30;;;;;;;18.09;92.86;97861.09;1779052;80;21075;-64
2022/08/19 03:16:31;;;;;;;11.43;4.92;;;;;;;18.10;92.76;97864.02;1782015;80;21046;-62
2022/08/19 03:18:59;;;;;;;9.83;5.30;;;;;;;18.06;92.60;97870.70;1774110;80;21569;-60
2022/08/19 03:21:28;;;;;;;8.60;4.85;;;;;;;18.00;92.67;97869.34;1774606;79;20976;-61
2022/08/19 03:23:57;;;;;;;21.12;5.08;;;;;;;18.01;92.94;97871.48;1772570;79;20880;-62
2022/08/19 03:26:24;;;;;;;10.35;4.55;;;;;;;18.01;93.29;97872.84;1773967;80;21218;-62
2022/08/19 03:28:50;;;;;;;10.15;5.12;;;;;;;18.02;93.43;97879.27;1783679;80;21427;-61
2022/08/19 03:31:22;;;;;;;8.70;5.10;;;;;;;18.10;93.60;97887.05;1783367;79;20971;-62
2022/08/19 03:33:49;;;;;;;14.20;5.15;;;;;;;18.16;93.44;97881.64;1766552;80;21033;-62
2022/08/19 03:36:25;;;;;;;9.43;5.28;;;;;;;18.18;93.18;97883.44;1774774;80;21056;-61
2022/08/19 03:38:54;;;;;;;8.13;4.70;;;;;;;18.18;93.20;97889.63;1760732;80;22062;-62
2022/08/19 03:41:24;;;;;;;10.13;4.40;;;;;;;18.22;93.35;97891.10;1777702;79;20845;-62
2022/08/19 03:43:52;;;;;;;7.72;4.25;;;;;;;18.25;93.45;97893.91;1777952;79;20848;-62
2022/08/19 03:46:23;;;;;;;11.22;5.00;;;;;;;18.27;93.83;97888.95;1783765;79;20931;-62
2022/08/19 03:48:56;;;;;;;8.90;4.22;;;;;;;18.31;93.58;97883.63;1783213;80;21573;-60
2022/08/19 03:51:27;;;;;;;11.00;4.97;;;;;;;18.30;93.44;97884.19;1772271;80;21121;-61
2022/08/19 03:53:54;;;;;;;13.48;5.58;;;;;;;18.30;93.12;97880.70;1768997;80;21034;-61
2022/08/19 03:56:21;;;;;;;11.22;5.60;;;;;;;18.24;92.45;97886.12;1784941;80;20920;-61
2022/08/19 03:58:48;;;;;;;9.55;5.45;;;;;;;18.12;92.15;97881.52;1775166;80;22363;-61
2022/08/19 04:01:17;;;;;;;9.48;5.55;;;;;;;18.03;92.08;97889.55;1783232;79;21011;-62
2022/08/19 04:03:46;;;;;;;9.58;5.17;;;;;;;17.96;92.19;97890.69;1768905;80;21069;-62
2022/08/19 04:06:16;;;;;;;10.32;5.30;;;;;;;17.90;92.47;97886.64;1781125;80;20959;-61
2022/08/19 04:08:45;;;;;;;12.45;5.40;;;;;;;17.90;92.64;97894.17;1776240;80;20979;-62
2022/08/19 04:11:15;;;;;;;12.20;5.60;;;;;;;17.91;92.80;97893.06;1771754;80;20896;-61
2022/08/19 04:13:43;;;;;;;14.25;5.10;;;;;;;17.91;92.89;97895.77;1777232;80;21436;-61
2022/08/19 04:16:10;;;;;;;6.22;4.90;;;;;;;17.92;93.00;97889.79;1777269;80;21157;-61
2022/08/19 04:18:38;;;;;;;12.63;5.15;;;;;;;17.93;93.11;97895.42;1777444;79;21047;-62
2022/08/19 04:21:05;;;;;;;8.40;5.30;;;;;;;17.95;93.14;97887.73;1782332;79;21097;-61
2022/08/19 04:23:32;;;;;;;9.53;4.97;;;;;;;17.98;93.25;97887.06;1780107;79;20964;-62
2022/08/19 04:25:59;;;;;;;7.72;5.10;;;;;;;18.00;93.32;97880.73;1773641;80;21035;-61
2022/08/19 04:28:25;;;;;;;9.88;4.95;;;;;;;18.03;93.39;97880.86;1768133;80;22004;-61
2022/08/19 04:30:53;;;;;;;8.08;4.90;;;;;;;18.07;93.51;97878.23;1769742;80;21395;-61
2022/08/19 04:33:22;;;;;;;8.40;5.15;;;;;;;18.10;93.67;97882.98;1773590;79;20900;-62
2022/08/19 04:35:51;;;;;;;11.45;5.90;;;;;;;18.11;93.78;97875.09;1782898;79;20872;-61
2022/08/19 04:38:22;;;;;;;8.88;5.67;;;;;;;18.15;93.74;97873.27;1781947;79;20900;-61
2022/08/19 04:43:37;;;;;;;8.73;5.60;;;;;;;18.33;93.70;97880.00;1768037;80;20975;-62
2022/08/19 04:46:12;;;;;;;11.20;5.97;;;;;;;18.47;93.58;97885.86;1774155;80;21058;-62
2022/08/19 04:48:38;;;;;;;7.45;5.65;;;;;;;18.58;93.35;97886.98;1759757;80;21487;-62
2022/08/19 04:51:12;;;;;;;9.80;5.85;;;;;;;18.69;92.99;97884.55;1778285;80;20900;-62
2022/08/19 04:53:40;;;;;;;10.98;5.65;;;;;;;18.80;92.57;97881.56;1756946;80;21287;-62
2022/08/19 04:56:10;;;;;;;10.78;5.33;;;;;;;18.91;92.23;97875.28;1781278;80;21275;-62
2022/08/19 04:58:38;;;;;;;10.63;5.53;;;;;;;19.01;91.95;97882.94;1760819;80;21598;-62
2022/08/19 05:01:04;;;;;;;13.70;6.08;;;;;;;19.12;91.67;97879.92;1779806;79;20916;-62
2022/08/19 05:03:33;;;;;;;10.55;5.85;;;;;;;19.22;91.36;97888.13;1773882;79;21024;-62
2022/08/19 05:06:07;;;;;;;11.03;6.25;;;;;;;19.33;91.28;97885.70;1752019;81;21255;-61
2022/08/19 05:08:36;;;;;;;18.37;5.58;;;;;;;19.40;90.98;97883.20;1753828;81;21026;-62
2022/08/19 05:11:13;;;;;;;11.30;5.55;;;;;;;19.49;90.69;97886.52;1756134;81;20985;-61
2022/08/19 05:13:45;;;;;;;14.15;5.50;;;;;;;19.59;90.39;97898.23;1753884;81;20959;-62
2022/08/19 05:16:12;;;;;;;14.55;5.90;;;;;;;19.67;89.98;97895.33;1703881;83;21393;-62
2022/08/19 05:24:10;;;;;;;11.25;6.10;;;;;;;19.92;89.95;97902.72;1784985;80;20931;-63
2022/08/19 05:26:38;;;;;;;12.23;6.20;;;;;;;19.99;89.79;97900.17;1782324;80;20888;-63
2022/08/19 05:29:07;;;;;;;7.95;5.25;;;;;;;20.06;89.32;97886.74;1774084;80;37118;-63
2022/08/19 05:31:35;;;;;;;21.85;7.00;;;;;;;20.12;88.94;97885.31;1777209;79;21096;-62
2022/08/19 05:34:03;;;;;;;13.13;6.45;;;;;;;20.22;88.92;97891.59;1772072;78;20874;-62
2022/08/19 05:44:46;;;;;;;17.52;5.60;;;;;;;20.66;86.04;97888.62;1766383;80;21231;-61
2022/08/19 05:47:14;;;;;;;11.08;5.20;;;;;;;20.77;85.55;97893.72;1751673;80;20931;-61
2022/08/19 05:49:41;;;;;;;9.70;5.78;;;;;;;20.89;85.00;97899.78;1748732;80;20919;-62
2022/08/19 05:52:10;;;;;;;9.75;5.87;;;;;;;21.01;84.61;97900.99;1748706;80;20983;-62
2022/08/19 05:54:40;;;;;;;11.05;5.70;;;;;;;21.11;83.99;97914.06;1749258;82;20955;-61
2022/08/19 05:57:06;;;;;;;10.03;6.00;;;;;;;21.19;83.38;97913.63;1745407;80;21183;-61
2022/08/19 05:59:35;;;;;;;8.58;5.50;;;;;;;21.27;82.41;97916.67;1753326;80;20920;-62
2022/08/19 06:02:02;;;;;;;16.57;5.53;;;;;;;21.36;81.75;97915.87;1756726;80;20975;-62
2022/08/19 06:04:29;;;;;;;11.57;5.55;;;;;;;21.47;81.54;97916.86;1753619;80;21118;-62
2022/08/19 06:06:56;;;;;;;8.95;5.15;;;;;;;21.57;81.18;97914.91;1696327;82;20959;-61
2022/08/19 06:09:22;;;;;;;12.13;5.33;;;;;;;21.67;81.19;97923.81;1752023;81;21237;-61
2022/08/19 06:11:54;;;;;;;11.63;5.60;;;;;;;21.76;80.91;97922.99;1730972;81;21133;-62
2022/08/19 06:14:25;;;;;;;8.65;4.90;;;;;;;21.87;80.53;97919.13;1761008;80;21015;-61
2022/08/19 06:16:54;;;;;;;13.88;5.72;;;;;;;21.97;80.22;97925.89;1750276;80;21035;-62
2022/08/19 06:19:22;;;;;;;10.85;5.47;;;;;;;22.05;79.74;97925.63;1746749;80;21495;-61
2022/08/19 06:21:50;;;;;;;11.83;5.25;;;;;;;22.16;79.43;97935.35;1755896;80;21227;-62
2022/08/19 06:24:21;;;;;;;7.62;5.33;;;;;;;22.25;78.57;97927.69;1757614;79;21099;-61
2022/08/19 06:26:48;;;;;;;10.30;4.97;;;;;;;22.33;78.40;97924.69;1758849;80;21155;-62
2022/08/19 06:29:16;;;;;;;11.25;5.00;;;;;;;22.42;77.82;97930.66;1765960;79;21027;-62
2022/08/19 06:31:46;;;;;;;11.88;6.17;;;;;;;22.48;77.15;97932.50;1727998;80;20909;-62
2022/08/19 06:34:21;;;;;;;11.60;5.12;;;;;;;22.53;77.14;97928.09;1734523;81;21096;-62
2022/08/19 06:36:50;;;;;;;15.90;5.05;;;;;;;22.59;77.10;97923.87;1779072;80;21026;-62
2022/08/19 06:39:20;;;;;;;12.60;5.60;;;;;;;22.69;76.89;97925.19;1781655;80;21498;-62
2022/08/19 06:41:50;;;;;;;11.22;4.80;;;;;;;22.78;77.02;97927.85;1780666;79;21439;-62
2022/08/19 06:44:19;;;;;;;6.15;4.85;;;;;;;22.87;76.49;97926.22;1768402;78;21074;-62
2022/08/19 06:46:46;;;;;;;10.35;5.72;;;;;;;22.95;76.23;97919.09;1778288;79;22015;-62
2022/08/19 06:49:13;;;;;;;9.78;5.58;;;;;;;23.05;76.15;97923.91;1761097;80;21046;-61
2022/08/19 06:51:42;;;;;;;13.35;5.05;;;;;;;23.12;75.54;97919.88;1744655;80;21433;-62
2022/08/19 06:54:10;;;;;;;13.30;5.47;;;;;;;23.19;75.08;97921.91;1748919;80;21458;-61
2022/08/19 06:56:37;;;;;;;8.00;4.87;;;;;;;23.26;74.75;97921.97;1771544;80;21090;-61
2022/08/19 06:59:12;;;;;;;9.28;4.80;;;;;;;23.33;74.12;97922.05;1738933;80;21201;-61
2022/08/19 07:01:46;;;;;;;11.20;4.60;;;;;;;23.37;73.80;97914.70;1767125;80;20896;-61
2022/08/19 07:04:15;;;;;;;12.28;5.17;;;;;;;23.45;73.56;97919.66;1757156;80;21055;-62
2022/08/19 07:06:42;;;;;;;14.50;4.25;;;;;;;23.54;73.94;97918.77;1756809;80;21142;-62
2022/08/19 07:09:11;;;;;;;9.40;4.42;;;;;;;23.61;73.14;97913.36;1758300;80;21724;-62
2022/08/19 07:11:38;;;;;;;6.17;4.37;;;;;;;23.73;72.60;97915.81;1755423;80;22126;-60
2022/08/19 07:14:06;;;;;;;8.05;3.75;;;;;;;23.84;72.13;97909.84;1756574;80;21122;-61
2022/08/19 07:16:32;;;;;;;9.10;4.28;;;;;;;23.98;71.35;97916.00;1760758;80;21244;-61
2022/08/19 07:18:59;;;;;;;7.95;4.15;;;;;;;24.10;70.19;97908.31;1756299;80;20979;-62
2022/08/19 07:21:28;;;;;;;5.85;4.25;;;;;;;24.22;70.74;97904.48;1743929;79;22226;-60
2022/08/19 07:23:56;;;;;;;9.58;4.35;;;;;;;24.32;70.88;97903.77;1751277;80;21191;-60
2022/08/19 07:26:30;;;;;;;9.98;4.28;;;;;;;24.42;70.79;97906.55;1750493;80;21052;-61
2022/08/19 07:28:57;;;;;;;9.70;4.15;;;;;;;24.49;69.82;97906.59;1739689;79;21112;-61
2022/08/19 07:31:26;;;;;;;7.40;4.62;;;;;;;24.59;69.85;97905.69;1746260;80;21799;-63
2022/08/19 07:33:58;;;;;;;5.25;3.90;;;;;;;24.67;70.06;97904.53;1750472;80;21091;-62
2022/08/19 07:36:30;;;;;;;12.73;3.95;;;;;;;24.75;69.41;97903.41;1758814;80;21419;-62
2022/08/19 07:38:57;;;;;;;7.67;4.10;;;;;;;24.86;68.79;97904.25;1762174;80;21106;-62
2022/08/19 07:41:25;;;;;;;9.13;3.83;;;;;;;24.96;68.25;97902.15;1756030;80;21055;-60
2022/08/19 07:43:52;;;;;;;6.58;3.87;;;;;;;25.05;67.95;97903.94;1752681;79;21020;-60
2022/08/19 07:46:23;;;;;;;5.85;3.77;;;;;;;25.15;67.59;97908.06;1749886;80;21230;-61
2022/08/19 07:48:51;;;;;;;5.22;3.42;;;;;;;25.25;67.04;97909.26;1752522;79;21279;-61
2022/08/19 07:51:21;;;;;;;5.80;3.47;;;;;;;25.34;65.78;97907.53;1711288;82;21063;-61
2022/08/19 07:53:50;;;;;;;6.85;3.27;;;;;;;25.41;63.88;97913.03;1723343;81;21431;-61
2022/08/19 07:56:20;;;;;;;6.00;3.40;;;;;;;25.49;63.67;97913.25;1719396;82;21087;-61
2022/08/19 07:58:48;;;;;;;6.58;3.60;;;;;;;25.58;62.40;97911.70;1714814;81;21098;-63
2022/08/19 08:01:19;;;;;;;12.18;3.50;;;;;;;25.67;61.67;97909.96;1767105;80;21476;-61
2022/08/19 08:09:29;;;;;;;20.27;3.77;;;;;;;25.86;61.07;97900.56;1754246;80;21103;-61
2022/08/19 08:12:05;;;;;;;8.13;3.25;;;;;;;25.91;61.50;97896.05;1743182;81;20995;-63
2022/08/19 08:14:43;;;;;;;11.73;3.25;;;;;;;25.99;60.50;97904.45;1740593;81;21144;-61
2022/08/19 08:17:10;;;;;;;7.05;3.08;;;;;;;26.04;59.58;97907.60;1737170;80;21518;-62
2022/08/19 08:19:38;;;;;;;8.95;3.12;;;;;;;26.07;59.04;97901.33;1737792;80;20903;-60
2022/08/19 08:22:08;;;;;;;10.85;3.80;;;;;;;26.12;58.47;97902.31;1757621;80;21090;-60
2022/08/19 08:24:35;;;;;;;6.08;2.92;;;;;;;26.17;58.33;97912.11;1762062;80;21081;-60
2022/08/19 08:27:03;;;;;;;8.33;3.00;;;;;;;26.15;57.13;97913.09;1756200;79;22119;-60
2022/08/19 08:29:31;;;;;;;7.87;3.22;;;;;;;26.15;56.87;97914.47;1746142;80;21150;-60
2022/08/19 08:31:57;;;;;;;9.45;3.35;;;;;;;26.16;57.04;97905.86;1747579;80;21098;-59
2022/08/19 08:34:24;;;;;;;7.62;3.20;;;;;;;26.20;57.41;97901.72;1744829;80;20925;-60
2022/08/19 08:36:51;;;;;;;18.50;3.70;;;;;;;26.26;57.65;97899.55;1752539;80;20944;-60
2022/08/19 08:39:19;;;;;;;9.50;2.87;;;;;;;26.37;57.17;97907.19;1756931;80;21715;-60
2022/08/19 08:42:03;;;;;;;6.37;3.22;;;;;;;26.43;55.28;97904.22;1747543;80;20873;-60
2022/08/19 08:44:54;;;;;;;10.20;3.45;;;;;;;26.43;54.64;97907.55;1734532;81;20928;-61
2022/08/19 08:47:20;;;;;;;10.23;4.20;;;;;;;26.52;55.93;97906.55;1735190;81;21071;-60
2022/08/19 08:49:55;;;;;;;8.50;3.02;;;;;;;26.52;55.93;97906.55;1704006;83;21514;-63
2022/08/19 08:52:37;;;;;;;12.58;2.92;;;;;;;26.57;54.68;97908.12;1709740;82;21277;-60
2022/08/19 08:55:21;;;;;;;6.37;2.70;;;;;;;26.58;54.48;97907.72;1725492;82;21053;-62
2022/08/19 08:57:54;;;;;;;10.18;3.55;;;;;;;26.59;54.43;97907.89;1734144;80;21184;-62
2022/08/19 09:00:26;;;;;;;10.78;3.00;;;;;;;26.60;55.19;97906.73;1760614;80;21086;-62
2022/08/19 09:02:54;;;;;;;9.70;3.10;;;;;;;26.69;55.76;97908.45;1754037;80;21044;-61
2022/08/19 09:05:21;;;;;;;8.15;3.22;;;;;;;26.80;55.44;97913.37;1752693;80;21700;-62
2022/08/19 09:08:08;;;;;;;9.65;2.45;;;;;;;26.87;53.76;97902.35;1756749;80;21110;-61
2022/08/19 09:10:44;;;;;;;6.08;2.58;;;;;;;26.88;53.23;97903.91;1751488;80;20978;-61
2022/08/19 09:13:44;;;;;;;12.73;2.62;;;;;;;26.99;54.20;97914.86;1746839;80;21044;-61
2022/08/19 09:16:16;;;;;;;10.13;2.90;;;;;;;27.09;53.90;97918.13;1750703;80;21600;-62
2022/08/19 09:18:46;;;;;;;9.20;3.00;;;;;;;27.14;52.52;97917.72;1744125;79;21102;-61
2022/08/19 09:21:15;;;;;;;10.45;3.22;;;;;;;27.15;51.98;97917.92;1755220;78;20998;-61
2022/08/19 09:23:43;;;;;;;9.08;2.90;;;;;;;27.19;51.70;97911.02;1774300;80;21030;-61
2022/08/19 09:26:19;;;;;;;7.78;2.92;;;;;;;27.19;51.72;97906.89;1752472;79;21041;-61
2022/08/19 09:28:48;;;;;;;7.97;3.37;;;;;;;27.26;52.40;97909.02;1755681;80;21537;-62
2022/08/19 09:31:24;;;;;;;7.28;2.47;;;;;;;27.37;51.56;97915.84;1756369;80;21093;-61
2022/08/19 09:33:51;;;;;;;7.35;2.50;;;;;;;27.43;51.02;97912.87;1741927;80;20857;-61
2022/08/19 09:36:22;;;;;;;7.97;2.70;;;;;;;27.49;51.56;97918.13;1747065;80;21028;-60
2022/08/19 09:38:48;;;;;;;5.12;2.72;;;;;;;27.62;51.04;97918.64;1756818;80;21083;-61
2022/08/19 09:41:18;;;;;;;8.63;2.87;;;;;;;27.76;51.31;97913.63;1768804;80;20983;-63
2022/08/19 09:43:45;;;;;;;7.80;2.45;;;;;;;27.86;50.95;97919.64;1746085;80;21138;-62
2022/08/19 09:46:12;;;;;;;5.97;2.58;;;;;;;27.95;50.17;97917.20;1690514;83;21136;-62
2022/08/19 09:48:40;;;;;;;5.90;2.90;;;;;;;28.02;51.16;97915.80;1763262;78;21007;-62
2022/08/19 09:51:15;;;;;;;6.72;2.90;;;;;;;28.10;51.08;97905.51;1761170;80;20940;-62
2022/08/19 09:53:44;;;;;;;8.13;2.83;;;;;;;28.18;50.57;97909.16;1697276;82;21041;-64
2022/08/19 09:56:10;;;;;;;6.53;2.58;;;;;;;28.24;50.01;97904.75;1777536;80;21130;-63
2022/08/19 09:58:38;;;;;;;7.53;2.60;;;;;;;28.34;50.03;97912.14;1774141;78;20947;-61
2022/08/19 10:01:05;;;;;;;5.92;2.60;;;;;;;28.43;50.33;97912.43;1777073;80;21065;-62
2022/08/19 10:03:33;;;;;;;7.92;2.62;;;;;;;28.51;49.17;97902.12;1766865;80;21577;-62
2022/08/19 10:06:02;;;;;;;8.53;2.95;;;;;;;28.59;48.85;97894.56;1757664;81;20982;-63
2022/08/19 10:08:34;;;;;;;5.00;2.33;;;;;;;28.65;48.17;97903.96;1757839;80;21303;-62
2022/08/19 10:11:01;;;;;;;4.65;2.27;;;;;;;28.66;47.09;97902.78;1766608;80;20926;-63
2022/08/19 10:13:29;;;;;;;5.35;2.62;;;;;;;28.70;47.28;97903.52;1758517;80;20966;-63
2022/08/19 10:16:03;;;;;;;8.08;2.52;;;;;;;28.72;47.57;97904.67;1769906;80;21482;-62
2022/08/19 10:18:33;;;;;;;5.10;2.20;;;;;;;28.80;47.25;97916.39;1756801;80;20856;-61
2022/08/19 10:21:08;;;;;;;6.10;2.12;;;;;;;28.79;43.64;97914.82;1757585;80;21127;-61
2022/08/19 10:23:37;;;;;;;6.20;2.33;;;;;;;28.69;44.36;97913.75;1769596;78;20960;-62
2022/08/19 10:26:05;;;;;;;9.18;2.22;;;;;;;28.60;44.03;97920.35;1770714;80;20936;-62
2022/08/19 10:28:37;;;;;;;7.37;2.20;;;;;;;28.53;42.86;97929.25;1750576;80;21070;-62
2022/08/19 10:31:12;;;;;;;6.15;2.20;;;;;;;28.47;40.79;97931.69;1768501;80;20888;-62
2022/08/19 10:33:39;;;;;;;11.65;2.72;;;;;;;28.44;40.42;97931.91;1766466;79;21380;-62
2022/08/19 10:36:17;;;;;;;8.23;2.27;;;;;;;28.46;42.28;97925.39;1776326;80;21032;-62
2022/08/19 10:38:46;;;;;;;6.30;2.35;;;;;;;28.51;43.38;97926.13;1773846;80;20915;-63
2022/08/19 10:41:17;;;;;;;11.00;2.50;;;;;;;28.58;44.35;97928.81;1777660;80;20979;-62
2022/08/19 10:43:44;;;;;;;4.78;2.05;;;;;;;28.63;43.95;97922.89;1781170;79;21408;-63
2022/08/19 10:46:14;;;;;;;9.30;2.58;;;;;;;28.64;43.17;97936.23;1757526;80;21117;-62
2022/08/19 10:48:42;;;;;;;8.55;2.40;;;;;;;28.60;42.68;97929.20;1749946;81;21047;-62
2022/08/19 10:53:55;;;;;;;8.40;2.25;;;;;;;28.74;43.42;97929.05;1780898;79;21074;-62
2022/08/19 10:59:07;;;;;;;6.90;2.22;;;;;;;28.88;43.82;97934.39;1773011;80;21245;-64
2022/08/19 11:01:34;;;;;;;5.83;2.17;;;;;;;28.96;43.45;97935.30;1740791;80;21621;-62
2022/08/19 11:04:02;;;;;;;7.87;2.25;;;;;;;29.05;44.29;97936.16;1747738;80;21026;-64
2022/08/19 11:06:29;;;;;;;13.53;2.37;;;;;;;29.11;43.61;97933.14;1749834;80;21084;-62
2022/08/19 11:08:56;;;;;;;10.35;2.30;;;;;;;29.07;43.56;97928.25;1762938;80;21126;-62
2022/08/19 11:11:23;;;;;;;7.95;2.27;;;;;;;29.03;42.74;97929.69;1769506;80;21931;-61
2022/08/19 11:13:50;;;;;;;10.85;2.30;;;;;;;29.03;43.93;97928.91;1765875;80;20935;-61
2022/08/19 11:16:21;;;;;;;8.58;2.60;;;;;;;29.13;44.23;97930.13;1751476;81;21431;-63
2022/08/19 11:18:51;;;;;;;7.62;2.80;;;;;;;29.19;43.71;97927.73;1733897;82;21447;-62
2022/08/19 11:21:25;;;;;;;7.15;2.35;;;;;;;29.19;43.33;97918.08;1752104;78;21091;-62
2022/08/19 11:23:55;;;;;;;8.58;2.47;;;;;;;29.20;43.61;97925.17;1762994;80;21047;-62
2022/08/19 11:26:22;;;;;;;16.32;2.87;;;;;;;29.24;44.42;97916.25;1746273;80;20987;-62
2022/08/19 11:28:51;;;;;;;13.85;2.33;;;;;;;29.39;42.93;97919.59;1750181;80;21599;-61
2022/08/19 11:31:19;;;;;;;7.53;2.10;;;;;;;29.52;43.37;97914.46;1751560;80;20960;-62
2022/08/19 11:33:45;;;;;;;14.58;2.52;;;;;;;29.66;42.26;97905.97;1763994;80;20892;-63
2022/08/19 11:36:13;;;;;;;9.98;2.10;;;;;;;29.83;43.35;97913.03;1750314;80;21426;-61
2022/08/19 11:38:39;;;;;;;10.93;2.52;;;;;;;30.03;42.75;97909.75;1756027;80;20928;-66
2022/08/19 11:41:07;;;;;;;13.35;2.47;;;;;;;30.27;41.92;97909.89;1759694;80;20906;-63
2022/08/19 11:43:34;;;;;;;9.20;2.42;;;;;;;30.49;41.36;97899.27;1736482;80;20999;-64
2022/08/19 11:46:07;;;;;;;7.50;2.30;;;;;;;30.67;41.75;97906.01;1745256;80;21065;-64
2022/08/19 11:48:34;;;;;;;7.50;2.55;;;;;;;30.87;41.63;97901.27;1761846;80;21116;-63
2022/08/19 11:51:08;;;;;;;7.83;2.40;;;;;;;31.07;41.27;97904.03;1774654;80;21517;-64
2022/08/19 11:53:35;;;;;;;10.13;2.58;;;;;;;31.18;40.29;97892.16;1760832;79;21503;-63
2022/08/19 11:56:03;;;;;;;6.62;2.45;;;;;;;31.20;39.91;97899.41;1754766;80;21464;-65
2022/08/19 11:58:29;;;;;;;8.15;2.27;;;;;;;31.18;40.53;97897.69;1761690;80;21507;-63
2022/08/19 12:00:56;;;;;;;6.97;2.20;;;;;;;31.20;39.30;97891.72;1759051;80;21268;-63
2022/08/19 12:03:23;;;;;;;8.53;2.42;;;;;;;31.19;39.81;97892.91;1747771;81;20916;-62
2022/08/19 12:05:50;;;;;;;6.62;2.30;;;;;;;31.20;39.91;97891.72;1759041;80;20933;-60
2022/08/19 12:08:16;;;;;;;8.98;2.35;;;;;;;31.27;39.77;97899.26;1763959;80;20996;-61